Flight Track Log - Related Links

Times and Time Zones

All times are in EDT time to prevent confusion due to time zone crossing. See the PDT4186 flight status page for this flight to view local times or setup timezone preferences in your user account.

Time Position Orientation Groundspeed Altitude Reporting Facility
EDT Latitude Longitude Course Direction KTS MPH feet Rate Location/Type
Mon 05:14:00 PM 32.5733 -80.7260 23° Northeast  Level Estimated
Mon 05:15:00 PM 32.6314 -80.7307 23° Northeast  Level Estimated
Mon 05:16:00 PM 32.6721 -80.6812 46° Northeast  Level FlightAware Approximate
Mon 05:16:07 PM 32.4819 -80.4864 17° North 188 216 12,300  Level Jacksonville Center
Mon 05:17:00 PM 32.7302 -80.6871 24° Northeast  Level Estimated
Mon 05:17:07 PM 32.5256 -80.4731 14° North 164 189 13,700  Level Jacksonville Center
Mon 05:18:07 PM 32.5817 -80.4667 North 173 199 14,000 150 Climbing Jacksonville Center
Mon 05:19:07 PM 32.6403 -80.4675 359° North 192 221 14,000  Level Jacksonville Center
Mon 05:20:07 PM 32.7025 -80.4486 14° North 212 244 14,000 350 Level Jacksonville Center
Mon 05:21:07 PM 32.7686 -80.4122 25° Northeast 231 266 14,700 500 Climbing Jacksonville Center
Mon 05:22:07 PM 32.8264 -80.3883 19° North 231 266 15,000 150 Climbing Jacksonville Center
Mon 05:23:07 PM 32.8864 -80.3569 24° Northeast 223 257 15,000  Level Jacksonville Center
Mon 05:24:07 PM 32.9439 -80.3158 31° Northeast 234 269 15,000  Level Jacksonville Center
Mon 05:25:07 PM 33.0058 -80.2769 28° Northeast 241 277 15,000  Level Jacksonville Center
Mon 05:26:07 PM 33.0703 -80.2675 North 238 274 15,000  Level Jacksonville Center
Mon 05:27:07 PM 33.1389 -80.2531 10° North 244 281 15,000  Level Jacksonville Center
Mon 05:28:07 PM 33.2033 -80.2389 10° North 238 274 15,000  Level Jacksonville Center
Mon 05:29:07 PM 33.2653 -80.2022 26° Northeast 239 275 15,000  Level Jacksonville Center
Mon 05:30:07 PM 33.3228 -80.1656 28° Northeast 231 266 15,000  Level Jacksonville Center
Mon 05:31:07 PM 33.3911 -80.1361 20° North 245 282 15,000  Level Jacksonville Center
Mon 05:32:07 PM 33.4575 -80.1217 10° North 245 282 15,000  Level Jacksonville Center
Mon 05:33:07 PM 33.5244 -80.1344 351° North 239 275 15,000  Level Jacksonville Center
Mon 05:34:07 PM 33.5917 -80.1450 353° North 234 269 15,000  Level Jacksonville Center
Mon 05:35:07 PM 33.6586 -80.1528 354° North 239 275 15,000 -450 Level Jacksonville Center
Mon 05:36:07 PM 33.7214 -80.1608 354° North 241 277 14,100 -950 Descending Jacksonville Center
Mon 05:37:07 PM 33.7944 -80.1661 357° North 248 285 13,100 -1,000 Descending Jacksonville Center
Mon 05:38:07 PM 33.8678 -80.1814 350° North 258 297 12,100 -1,000 Descending Jacksonville Center
Mon 05:39:07 PM 33.9453 -80.1889 355° North 264 304 11,100 -1,000 Descending Jacksonville Center
Mon 05:40:07 PM 34.0078 -80.1894 360° North 264 304 10,100 -1,000 Descending Jacksonville Center
Mon 05:41:07 PM 34.0767 -80.1900 360° North 240 276 9,100 -1,050 Descending Jacksonville Center
Mon 05:42:07 PM 34.1417 -80.2003 353° North 231 266 8,000 -550 Descending Jacksonville Center
Mon 05:43:07 PM 34.2044 -80.2111 352° North 231 266 8,000  Level Jacksonville Center
Mon 05:44:07 PM 34.2692 -80.2192 354° North 231 266 8,000  Level Jacksonville Center
Mon 05:45:07 PM 34.3406 -80.2369 348° North 237 273 8,000  Level Jacksonville Center
Mon 05:46:07 PM 34.4053 -80.2450 354° North 237 273 8,000  Level Jacksonville Center
Mon 05:47:07 PM 34.4703 -80.2558 352° North 237 273 8,000  Level Jacksonville Center
Mon 05:48:07 PM 34.5350 -80.2614 356° North 237 273 8,000  Level Jacksonville Center
Mon 05:49:50 PM 34.6486 -80.2792 353° North 231 266 8,000  Level Atlanta Center
Mon 05:50:56 PM 34.6964 -80.3350 316° Northwest 227 261 8,000  Level Atlanta Center
Mon 05:51:57 PM 34.7356 -80.3889 311° West 222 255 8,000  Level Atlanta Center
Mon 05:52:58 PM 34.7831 -80.4425 317° Northwest 223 257 8,000 -516 Level Atlanta Center
Mon 05:54:05 PM 34.8350 -80.5136 312° West 244 281 6,900 -938 Descending Atlanta Center
Mon 05:55:06 PM 34.8683 -80.5831 300° West 256 295 6,000 -443 Descending Atlanta Center
Mon 05:56:07 PM 34.9036 -80.6525 302° West 238 274 6,000  Level Atlanta Center
Mon 05:57:01 PM 34.9325 -80.7147 300° West 230 265 6,000 -417 Level Atlanta Center
Mon 05:58:02 PM 34.9678 -80.7844 302° West 233 268 5,200 -836 Descending Atlanta Center
Mon 05:59:03 PM 35.0031 -80.8564 301° West 247 284 4,300 -797 Descending Atlanta Center
Mon 06:00:10 PM 35.0608 -80.9100 323° Northwest 218 251 3,500 -891 Descending Atlanta Center
Mon 06:01:11 PM 35.1072 -80.9286 342° North 166 191 2,400 -879 Descending Atlanta Center
Mon 06:02:06 PM 35.1489 -80.9322 356° North 158 182 1,800 -678 Descending Atlanta Center
Mon 06:03:06 PM 35.1867 -80.9358 356° North 128 147 1,100 -700 Descending Atlanta Center
Mon 06:05:00 PM 35.2000 -80.9333 90° East  Level FlightAware Approximate
Mon 06:12:00 PM 35.2137 -80.9491 90° East  Level Estimated

Login

Don't have an account? Register now (free) for customized features, flight alerts, and more!